createdAt,value
2023-04-09T00:02:23.228Z,102614.28
2023-04-09T00:07:14.247Z,102622.66
2023-04-09T00:12:14.414Z,102605.56
2023-04-09T00:17:08.063Z,102610.91
2023-04-09T00:22:01.960Z,102616.16
2023-04-09T00:26:54.433Z,102607.09
2023-04-09T00:31:51.891Z,102606.13
2023-04-09T00:36:46.074Z,102592.78
2023-04-09T00:41:45.353Z,102594.78
2023-04-09T00:46:39.832Z,102593.22
2023-04-09T00:51:38.528Z,102589.84
2023-04-09T00:56:29.807Z,102594.31
2023-04-09T01:01:23.392Z,102587.44
2023-04-09T01:06:15.622Z,102590.13
2023-04-09T01:11:13.572Z,102584.94
2023-04-09T01:16:09.877Z,102579.91
2023-04-09T01:21:05.915Z,102580.00
2023-04-09T01:26:07.585Z,102576.66
2023-04-09T01:31:31.670Z,102582.59
2023-04-09T01:36:23.071Z,102580.94
2023-04-09T01:41:20.478Z,102576.59
2023-04-09T01:46:12.730Z,102580.97
2023-04-09T01:51:08.511Z,102580.97
2023-04-09T01:55:59.766Z,102580.06
2023-04-09T02:00:58.518Z,102580.06
2023-04-09T02:05:56.568Z,102583.59
2023-04-09T02:10:54.266Z,102593.19
2023-04-09T02:15:50.590Z,102584.41
2023-04-09T02:20:43.846Z,102585.19
2023-04-09T02:25:35.528Z,102582.59
2023-04-09T02:30:28.512Z,102574.75
2023-04-09T02:35:19.669Z,102573.09
2023-04-09T02:40:11.047Z,102568.69
2023-04-09T02:45:03.205Z,102559.91
2023-04-09T02:49:58.634Z,102560.00
2023-04-09T02:54:51.212Z,102550.50
2023-04-09T02:59:47.337Z,102548.78
2023-04-09T03:04:39.063Z,102550.50
2023-04-09T03:09:34.666Z,102548.88
2023-04-09T03:14:25.628Z,102546.25
2023-04-09T03:19:17.583Z,102539.38
2023-04-09T03:24:11.879Z,102535.91
2023-04-09T03:29:06.114Z,102529.00
2023-04-09T03:33:58.658Z,102523.88
2023-04-09T03:38:58.042Z,102518.69
2023-04-09T03:43:54.170Z,102522.19
2023-04-09T03:48:54.317Z,102517.00
2023-04-09T03:53:48.304Z,102507.34
2023-04-09T03:58:39.907Z,102508.16
2023-04-09T04:03:36.419Z,102508.06
2023-04-09T04:08:51.248Z,102504.63
2023-04-09T04:13:48.179Z,102500.38
2023-04-09T04:18:38.933Z,102497.91
2023-04-09T04:23:29.418Z,102495.38
2023-04-09T04:28:33.359Z,102502.25
2023-04-09T04:33:31.461Z,102501.44
2023-04-09T04:38:28.020Z,102500.53
2023-04-09T04:43:30.204Z,102497.00
2023-04-09T04:48:26.113Z,102510.06
2023-04-09T04:53:19.910Z,102512.69
2023-04-09T04:58:15.845Z,102502.19
2023-04-09T05:03:20.112Z,102507.34
2023-04-09T05:08:25.575Z,102508.94
2023-04-09T05:13:19.334Z,102518.34
2023-04-09T05:18:10.541Z,102516.72
2023-04-09T05:23:03.701Z,102526.28
2023-04-09T05:28:12.896Z,102521.03
2023-04-09T05:33:16.164Z,102524.47
2023-04-09T05:38:17.537Z,102514.84
2023-04-09T05:43:17.238Z,102523.53
2023-04-09T05:48:11.829Z,102529.59
2023-04-09T05:53:04.408Z,102536.41
2023-04-09T05:58:03.888Z,102527.09
2023-04-09T06:02:57.610Z,102529.34
2023-04-09T06:07:51.649Z,102533.69
2023-04-09T06:12:42.779Z,102530.44
2023-04-09T06:17:35.966Z,102532.91
2023-04-09T06:22:33.896Z,102531.19
2023-04-09T06:27:27.341Z,102538.13
2023-04-09T06:32:17.800Z,102538.97
2023-04-09T06:42:27.212Z,102539.97
2023-04-09T06:47:45.888Z,102549.50
2023-04-09T06:52:40.237Z,102553.09
2023-04-09T06:57:35.514Z,102543.06
2023-04-09T07:02:30.296Z,102544.78
2023-04-09T07:07:25.855Z,102544.09
2023-04-09T07:12:18.961Z,102549.03
2023-04-09T07:17:13.175Z,102544.72
2023-04-09T07:22:04.093Z,102537.88
2023-04-09T07:26:54.794Z,102544.06
2023-04-09T07:32:04.110Z,102545.84
2023-04-09T07:36:58.918Z,102551.06
2023-04-09T07:41:59.576Z,102546.84
2023-04-09T07:46:54.077Z,102548.78
2023-04-09T07:51:49.468Z,102549.78
2023-04-09T07:56:45.945Z,102558.81
2023-04-09T08:01:46.422Z,102550.91
2023-04-09T08:06:38.349Z,102550.25
2023-04-09T08:11:31.320Z,102543.97
2023-04-09T08:16:24.739Z,102541.28
2023-04-09T08:21:14.565Z,102545.88
2023-04-09T08:26:04.140Z,102550.31
2023-04-09T08:30:55.675Z,102543.34
2023-04-09T08:35:51.655Z,102548.66
2023-04-09T08:40:44.410Z,102557.66
2023-04-09T08:45:34.895Z,102564.78
2023-04-09T08:50:25.732Z,102561.19
2023-04-09T08:55:21.607Z,102564.69
2023-04-09T09:00:15.366Z,102565.69
2023-04-09T09:05:05.893Z,102557.34
2023-04-09T09:09:59.608Z,102551.56
2023-04-09T09:14:52.169Z,102549.91
2023-04-09T09:19:47.243Z,102546.84
2023-04-09T09:24:52.956Z,102555.72
2023-04-09T09:29:46.885Z,102539.47
2023-04-09T09:34:44.483Z,102544.31
2023-04-09T09:39:50.589Z,102544.66
2023-04-09T09:44:49.677Z,102535.91
2023-04-09T09:49:44.918Z,102533.03
2023-04-09T09:54:46.398Z,102522.75
2023-04-09T09:59:42.099Z,102515.28
2023-04-09T10:04:39.030Z,102510.47
2023-04-09T10:09:34.698Z,102505.66
2023-04-09T10:14:26.694Z,102490.03
2023-04-09T10:19:17.689Z,102484.69
2023-04-09T10:24:12.973Z,102486.16
2023-04-09T10:29:17.473Z,102476.09
2023-04-09T10:34:12.941Z,102475.25
2023-04-09T10:39:16.595Z,102471.78
2023-04-09T10:44:26.732Z,102465.84
2023-04-09T10:49:22.783Z,102448.28
2023-04-09T10:54:44.399Z,102446.28
2023-04-09T10:59:41.038Z,102436.81
2023-04-09T11:04:46.222Z,102437.41
2023-04-09T11:09:39.591Z,102436.41
2023-04-09T11:14:37.088Z,102426.75
2023-04-09T11:19:33.430Z,102422.56
2023-04-09T11:24:23.625Z,102406.72
2023-04-09T11:29:14.875Z,102415.25
2023-04-09T11:34:05.259Z,102416.81
2023-04-09T11:39:00.401Z,102412.22
2023-04-09T11:43:55.381Z,102408.13
2023-04-09T11:48:51.530Z,102407.06
2023-04-09T11:53:45.323Z,102407.13
2023-04-09T11:58:40.902Z,102403.75
2023-04-09T12:03:34.940Z,102406.59
2023-04-09T12:08:27.828Z,102404.03
2023-04-09T12:13:19.289Z,102399.53
2023-04-09T12:18:17.747Z,102395.25
2023-04-09T12:23:15.263Z,102391.66
2023-04-09T12:28:11.752Z,102401.00
2023-04-09T12:33:10.282Z,102396.81
2023-04-09T12:38:10.297Z,102398.31
2023-04-09T12:43:03.947Z,102397.97
2023-04-09T12:47:56.016Z,102393.59
2023-04-09T12:52:50.707Z,102394.31
2023-04-09T12:57:51.432Z,102383.66
2023-04-09T13:02:47.239Z,102389.09
2023-04-09T13:07:43.815Z,102396.63
2023-04-09T13:12:38.268Z,102395.81
2023-04-09T13:17:32.526Z,102380.19
2023-04-09T13:22:24.600Z,102368.97
2023-04-09T13:27:20.508Z,102358.94
2023-04-09T13:32:14.527Z,102352.91
2023-04-09T13:37:13.809Z,102363.34
2023-04-09T13:42:13.679Z,102352.81
2023-04-09T13:47:05.357Z,102334.03
2023-04-09T13:51:57.427Z,102338.44
2023-04-09T13:56:51.651Z,102328.75
2023-04-09T14:01:47.948Z,102331.94
2023-04-09T14:06:45.292Z,102331.81
2023-04-09T14:11:39.537Z,102324.75
2023-04-09T14:16:34.962Z,102310.59
2023-04-09T14:21:27.318Z,102306.06
2023-04-09T14:26:27.455Z,102294.59
2023-04-09T14:31:21.731Z,102290.88
2023-04-09T14:36:17.910Z,102281.25
2023-04-09T14:41:09.578Z,102280.19
2023-04-09T14:46:00.985Z,102270.53
2023-04-09T14:51:03.362Z,102258.97
2023-04-09T14:56:04.179Z,102260.94
2023-04-09T15:00:59.019Z,102264.47
2023-04-09T15:06:01.828Z,102261.78
2023-04-09T15:16:26.237Z,102249.50
2023-04-09T15:21:22.839Z,102241.94
2023-04-09T15:26:18.578Z,102254.97
2023-04-09T15:31:15.583Z,102245.28
2023-04-09T15:36:07.926Z,102243.69
2023-04-09T15:41:11.197Z,102231.44
2023-04-09T15:46:12.254Z,102233.91
2023-04-09T15:51:13.435Z,102227.63
2023-04-09T15:56:14.334Z,102227.00
2023-04-09T16:01:15.968Z,102221.22
2023-04-09T16:06:20.027Z,102219.66
2023-04-09T16:11:36.559Z,102214.53
2023-04-09T16:16:33.754Z,102212.84
2023-04-09T16:21:40.064Z,102211.91
2023-04-09T16:32:14.122Z,102205.81
2023-04-09T16:37:10.783Z,102197.09
2023-04-09T16:42:05.156Z,102191.09
2023-04-09T16:47:19.312Z,102193.03
2023-04-09T16:52:11.464Z,102200.97
2023-04-09T16:57:09.667Z,102190.69
2023-04-09T17:02:07.515Z,102187.38
2023-04-09T17:07:03.939Z,102186.50
2023-04-09T17:11:55.801Z,102190.25
2023-04-09T17:16:47.609Z,102199.00
2023-04-09T17:21:44.506Z,102191.31
2023-04-09T17:26:36.635Z,102191.47
2023-04-09T17:31:30.350Z,102198.63
2023-04-09T17:36:25.612Z,102197.97
2023-04-09T17:41:21.960Z,102187.56
2023-04-09T17:46:14.217Z,102195.69
2023-04-09T17:51:19.252Z,102193.53
2023-04-09T17:56:11.563Z,102190.13
2023-04-09T18:01:12.474Z,102197.56
2023-04-09T18:06:05.174Z,102195.13
2023-04-09T18:11:11.525Z,102198.75
2023-04-09T18:16:11.287Z,102195.38
2023-04-09T18:21:02.936Z,102200.78
2023-04-09T18:25:56.821Z,102200.06
2023-04-09T18:30:47.358Z,102196.63
2023-04-09T18:35:45.024Z,102196.84
2023-04-09T18:40:49.660Z,102201.31
2023-04-09T18:45:45.915Z,102211.00
2023-04-09T18:50:40.140Z,102204.03
2023-04-09T18:55:46.908Z,102203.16
2023-04-09T19:00:41.176Z,102176.19
2023-04-09T19:05:35.189Z,102183.19
2023-04-09T19:10:26.418Z,102192.84
2023-04-09T19:15:23.593Z,102203.28
2023-04-09T19:20:25.176Z,102199.81
2023-04-09T19:25:18.904Z,102213.75
2023-04-09T19:30:14.972Z,102212.88
2023-04-09T19:35:15.338Z,102207.66
2023-04-09T19:40:06.734Z,102200.69
2023-04-09T19:45:03.134Z,102202.44
2023-04-09T19:50:10.479Z,102192.00
2023-04-09T19:55:10.471Z,102194.59
2023-04-09T20:00:02.902Z,102177.13
2023-04-09T20:05:03.582Z,102194.56
2023-04-09T20:09:58.908Z,102197.16
2023-04-09T20:14:56.370Z,102193.66
2023-04-09T20:19:50.047Z,102174.53
2023-04-09T20:24:43.012Z,102174.53
2023-04-09T20:29:35.896Z,102155.38
2023-04-09T20:34:34.415Z,102151.88
2023-04-09T20:39:29.299Z,102157.63
2023-04-09T20:44:21.455Z,102166.31
2023-04-09T20:49:19.962Z,102163.75
2023-04-09T20:54:15.494Z,102174.13
2023-04-09T20:59:07.130Z,102166.31
2023-04-09T21:03:59.875Z,102166.25
2023-04-09T21:08:59.708Z,102172.44
2023-04-09T21:13:55.871Z,102171.56
2023-04-09T21:18:47.373Z,102158.53
2023-04-09T21:23:42.127Z,102164.59
2023-04-09T21:28:46.210Z,102162.84
2023-04-09T21:33:39.991Z,102161.09
2023-04-09T21:38:31.246Z,102156.72
2023-04-09T21:43:22.508Z,102155.78
2023-04-09T21:48:13.981Z,102145.25
2023-04-09T21:53:11.457Z,102145.28
2023-04-09T21:58:03.767Z,102151.34
2023-04-09T22:03:01.428Z,102157.41
2023-04-09T22:07:52.593Z,102162.50
2023-04-09T22:12:46.723Z,102152.03
2023-04-09T22:17:39.327Z,102150.22
2023-04-09T22:22:34.073Z,102144.03
2023-04-09T22:27:29.592Z,102150.19
2023-04-09T22:32:27.104Z,102147.59
2023-04-09T22:37:18.342Z,102145.81
2023-04-09T22:42:20.658Z,102130.94
2023-04-09T22:47:13.608Z,102123.91
2023-04-09T22:52:09.132Z,102121.16
2023-04-09T22:57:01.003Z,102128.97
2023-04-09T23:01:57.031Z,102137.50
2023-04-09T23:06:51.938Z,102134.09
2023-04-09T23:11:52.225Z,102120.09
2023-04-09T23:16:43.147Z,102129.63
2023-04-09T23:21:39.409Z,102120.00
2023-04-09T23:26:31.249Z,102105.19
2023-04-09T23:31:27.808Z,102093.16
2023-04-09T23:36:24.755Z,102091.63
2023-04-09T23:41:19.205Z,102079.44
2023-04-09T23:46:13.494Z,102065.44
2023-04-09T23:51:15.524Z,102060.19
2023-04-09T23:56:09.654Z,102056.66
